createdAt,value
2023-02-26T00:01:45.711Z,56.90
2023-02-26T00:04:13.704Z,56.70
2023-02-26T00:06:53.427Z,56.40
2023-02-26T00:09:24.098Z,56.10
2023-02-26T00:11:54.523Z,56.20
2023-02-26T00:14:22.998Z,55.90
2023-02-26T00:16:58.548Z,56.40
2023-02-26T00:19:26.836Z,55.60
2023-02-26T00:21:55.374Z,55.50
2023-02-26T00:24:23.385Z,55.50
2023-02-26T00:26:51.370Z,55.60
2023-02-26T00:29:21.670Z,55.30
2023-02-26T00:31:50.399Z,55.30
2023-02-26T00:34:18.937Z,55.20
2023-02-26T00:36:51.862Z,55.10
2023-02-26T00:39:36.701Z,54.50
2023-02-26T00:42:05.488Z,54.30
2023-02-26T00:44:35.888Z,54.90
2023-02-26T00:47:10.862Z,55.30
2023-02-26T00:49:52.777Z,55.50
2023-02-26T00:52:29.634Z,55.30
2023-02-26T00:54:57.703Z,54.20
2023-02-26T00:57:25.645Z,54.00
2023-02-26T00:59:54.937Z,53.80
2023-02-26T01:02:23.336Z,53.60
2023-02-26T01:04:51.987Z,53.10
2023-02-26T01:07:23.593Z,53.20
2023-02-26T01:09:52.100Z,53.10
2023-02-26T01:12:20.854Z,53.00
2023-02-26T01:14:50.483Z,52.90
2023-02-26T01:17:25.010Z,53.60
2023-02-26T01:19:56.707Z,53.70
2023-02-26T01:22:30.135Z,53.40
2023-02-26T01:25:05.684Z,53.50
2023-02-26T01:27:34.481Z,53.30
2023-02-26T01:30:02.875Z,53.50
2023-02-26T01:32:44.067Z,53.30
2023-02-26T01:35:25.665Z,53.30
2023-02-26T01:38:01.834Z,53.30
2023-02-26T01:40:45.223Z,54.00
2023-02-26T01:43:18.986Z,53.30
2023-02-26T01:46:00.944Z,52.80
2023-02-26T01:48:38.622Z,53.40
2023-02-26T01:51:07.036Z,52.80
2023-02-26T01:53:35.056Z,53.10
2023-02-26T01:56:06.535Z,53.30
2023-02-26T01:58:37.916Z,53.30
2023-02-26T02:01:06.817Z,53.00
2023-02-26T02:03:40.268Z,52.90
2023-02-26T02:06:12.084Z,52.80
2023-02-26T02:08:40.187Z,53.20
2023-02-26T02:11:11.014Z,53.20
2023-02-26T02:14:00.490Z,53.20
2023-02-26T02:16:35.818Z,52.00
2023-02-26T02:19:21.355Z,52.00
2023-02-26T02:22:03.182Z,52.70
2023-02-26T02:24:45.707Z,52.70
2023-02-26T02:27:25.406Z,52.50
2023-02-26T02:30:11.224Z,53.30
2023-02-26T02:32:47.865Z,52.60
2023-02-26T02:35:22.702Z,52.30
2023-02-26T02:37:57.634Z,52.00
2023-02-26T02:40:29.923Z,52.10
2023-02-26T02:43:03.382Z,51.70
2023-02-26T02:45:39.190Z,51.90
2023-02-26T02:48:14.420Z,52.00
2023-02-26T02:50:46.969Z,52.20
2023-02-26T02:53:19.456Z,52.50
2023-02-26T02:55:52.893Z,52.40
2023-02-26T02:58:26.454Z,52.40
2023-02-26T03:00:58.464Z,52.00
2023-02-26T03:03:33.011Z,52.30
2023-02-26T03:06:01.135Z,52.20
2023-02-26T03:08:32.756Z,52.30
2023-02-26T03:11:01.008Z,52.60
2023-02-26T03:13:29.044Z,52.80
2023-02-26T03:16:05.970Z,52.70
2023-02-26T03:18:50.229Z,52.70
2023-02-26T03:21:25.776Z,52.70
2023-02-26T03:23:58.748Z,53.10
2023-02-26T03:26:31.340Z,53.90
2023-02-26T03:29:06.027Z,53.20
2023-02-26T03:31:41.419Z,53.30
2023-02-26T03:34:18.233Z,53.50
2023-02-26T03:36:52.233Z,53.70
2023-02-26T03:39:23.552Z,53.70
2023-02-26T03:41:55.897Z,53.00
2023-02-26T03:44:27.720Z,53.50
2023-02-26T03:46:59.725Z,54.30
2023-02-26T03:49:33.651Z,53.60
2023-02-26T03:52:03.142Z,53.80
2023-02-26T03:54:35.652Z,54.60
2023-02-26T03:57:03.825Z,54.70
2023-02-26T03:59:33.191Z,53.40
2023-02-26T04:02:04.439Z,54.30
2023-02-26T04:04:42.487Z,55.20
2023-02-26T04:07:11.711Z,54.60
2023-02-26T04:09:41.502Z,54.80
2023-02-26T04:12:09.730Z,55.40
2023-02-26T04:14:38.181Z,55.40
2023-02-26T04:17:06.825Z,55.10
2023-02-26T04:19:36.171Z,55.20
2023-02-26T04:22:04.274Z,55.10
2023-02-26T04:24:32.241Z,54.60
2023-02-26T04:27:00.160Z,54.10
2023-02-26T04:29:28.590Z,54.00
2023-02-26T04:31:56.705Z,54.20
2023-02-26T04:34:24.740Z,54.00
2023-02-26T04:36:54.527Z,50.80
2023-02-26T04:39:22.521Z,50.30
2023-02-26T04:41:50.469Z,51.20
2023-02-26T04:44:18.809Z,50.90
2023-02-26T04:46:46.761Z,51.70
2023-02-26T04:49:14.745Z,50.90
2023-02-26T04:51:42.830Z,52.00
2023-02-26T04:54:12.140Z,52.40
2023-02-26T04:56:40.109Z,51.60
2023-02-26T04:59:08.142Z,52.00
2023-02-26T05:01:36.140Z,52.80
2023-02-26T05:04:04.226Z,52.60
2023-02-26T05:06:32.200Z,52.80
2023-02-26T05:09:00.163Z,53.30
2023-02-26T05:11:29.567Z,53.60
2023-02-26T05:13:57.635Z,53.40
2023-02-26T05:16:25.941Z,53.80
2023-02-26T05:18:54.196Z,53.30
2023-02-26T05:21:23.418Z,53.60
2023-02-26T05:23:52.543Z,54.40
2023-02-26T05:26:20.578Z,53.70
2023-02-26T05:28:49.968Z,54.80
2023-02-26T05:31:18.095Z,55.10
2023-02-26T05:33:46.187Z,54.80
2023-02-26T05:36:14.655Z,55.40
2023-02-26T05:38:42.610Z,54.60
2023-02-26T05:41:10.620Z,54.50
2023-02-26T05:43:39.588Z,55.30
2023-02-26T05:46:09.041Z,55.40
2023-02-26T05:48:37.023Z,55.20
2023-02-26T05:51:05.197Z,56.30
2023-02-26T05:53:33.161Z,56.50
2023-02-26T05:56:01.117Z,56.80
2023-02-26T05:58:31.387Z,56.60
2023-02-26T06:00:59.835Z,56.00
2023-02-26T06:03:29.282Z,56.30
2023-02-26T06:05:57.236Z,56.50
2023-02-26T06:08:25.549Z,57.10
2023-02-26T06:10:53.618Z,57.10
2023-02-26T06:13:21.641Z,56.50
2023-02-26T06:15:52.236Z,56.70
2023-02-26T06:18:20.240Z,56.70
2023-02-26T06:20:49.635Z,56.80
2023-02-26T06:23:17.642Z,57.40
2023-02-26T06:25:45.635Z,57.30
2023-02-26T06:28:13.581Z,57.20
2023-02-26T06:30:41.700Z,57.20
2023-02-26T06:33:09.697Z,56.90
2023-02-26T06:35:38.004Z,56.50
2023-02-26T06:38:07.327Z,56.70
2023-02-26T06:40:35.259Z,56.60
2023-02-26T06:43:03.215Z,56.50
2023-02-26T06:45:31.527Z,56.60
2023-02-26T06:47:59.594Z,56.40
2023-02-26T06:50:27.570Z,57.10
2023-02-26T06:52:55.623Z,56.20
2023-02-26T06:55:26.948Z,55.80
2023-02-26T06:57:55.032Z,56.30
2023-02-26T07:00:23.791Z,55.30
2023-02-26T07:02:52.094Z,56.00
2023-02-26T07:05:20.571Z,56.50
2023-02-26T07:07:48.722Z,56.20
2023-02-26T07:10:16.667Z,56.70
2023-02-26T07:12:46.032Z,57.30
2023-02-26T07:15:14.022Z,56.60
2023-02-26T07:17:41.973Z,56.40
2023-02-26T07:20:12.241Z,56.30
2023-02-26T07:22:40.191Z,56.00
2023-02-26T07:25:08.721Z,55.40
2023-02-26T07:27:36.727Z,55.40
2023-02-26T07:30:08.072Z,55.20
2023-02-26T07:32:36.238Z,56.70
2023-02-26T07:35:04.432Z,57.30
2023-02-26T07:37:32.380Z,57.50
2023-02-26T07:40:00.550Z,55.90
2023-02-26T07:42:28.541Z,55.90
2023-02-26T07:44:56.510Z,56.30
2023-02-26T07:47:26.008Z,55.90
2023-02-26T07:49:53.954Z,53.90
2023-02-26T07:52:21.935Z,52.90
2023-02-26T07:54:49.976Z,52.60
2023-02-26T07:57:17.965Z,51.70
2023-02-26T07:59:45.996Z,53.10
2023-02-26T08:02:14.592Z,52.50
2023-02-26T08:04:43.912Z,53.10
2023-02-26T08:07:11.866Z,51.50
2023-02-26T08:09:39.833Z,51.30
2023-02-26T08:12:07.763Z,52.80
2023-02-26T08:14:35.732Z,50.10
2023-02-26T08:17:03.713Z,51.00
2023-02-26T08:19:32.550Z,51.10
2023-02-26T08:22:02.144Z,51.80
2023-02-26T08:24:30.147Z,50.20
2023-02-26T08:26:58.227Z,50.60
2023-02-26T08:29:26.507Z,50.30
2023-02-26T08:31:54.670Z,50.20
2023-02-26T08:34:22.758Z,50.30
2023-02-26T08:36:51.258Z,49.40
2023-02-26T08:39:20.617Z,50.00
2023-02-26T08:41:48.648Z,50.00
2023-02-26T08:44:16.648Z,49.70
2023-02-26T08:46:44.780Z,49.90
2023-02-26T08:49:12.811Z,49.60
2023-02-26T08:51:40.937Z,49.20
2023-02-26T08:54:09.867Z,49.30
2023-02-26T08:56:39.184Z,49.50
2023-02-26T08:59:07.693Z,49.20
2023-02-26T09:01:35.716Z,49.10
2023-02-26T09:04:03.852Z,49.30
2023-02-26T09:06:32.453Z,48.60
2023-02-26T09:09:00.426Z,47.90
2023-02-26T09:11:30.741Z,48.50
2023-02-26T09:14:02.253Z,47.70
2023-02-26T09:16:30.638Z,47.20
2023-02-26T09:18:58.946Z,47.50
2023-02-26T09:21:26.972Z,47.60
2023-02-26T09:23:54.899Z,47.80
2023-02-26T09:26:23.317Z,47.90
2023-02-26T09:28:51.552Z,47.10
2023-02-26T09:31:21.016Z,47.30
2023-02-26T09:33:49.100Z,47.10
2023-02-26T09:36:17.157Z,46.90
2023-02-26T09:38:46.036Z,46.20
2023-02-26T09:41:22.872Z,46.10
2023-02-26T09:44:17.830Z,46.60
2023-02-26T09:46:56.671Z,46.00
2023-02-26T09:49:34.098Z,46.10
2023-02-26T09:52:05.793Z,46.00
2023-02-26T09:54:40.023Z,45.50
2023-02-26T09:57:16.226Z,45.10
2023-02-26T09:59:44.192Z,44.20
2023-02-26T10:02:22.446Z,44.00
2023-02-26T10:04:56.644Z,43.50
2023-02-26T10:07:34.217Z,43.60
2023-02-26T10:10:12.419Z,43.60
2023-02-26T10:12:43.574Z,44.00
2023-02-26T10:15:15.933Z,43.50
2023-02-26T10:17:55.232Z,43.20
2023-02-26T10:20:28.781Z,43.40
2023-02-26T10:23:01.408Z,43.00
2023-02-26T10:25:35.683Z,42.70
2023-02-26T10:28:25.940Z,43.00
2023-02-26T10:31:01.585Z,42.60
2023-02-26T10:33:39.018Z,42.10
2023-02-26T10:36:15.944Z,42.10
2023-02-26T10:38:46.990Z,42.10
2023-02-26T10:41:19.321Z,42.60
2023-02-26T10:43:52.381Z,42.90
2023-02-26T10:46:27.875Z,41.60
2023-02-26T10:49:24.386Z,41.50
2023-02-26T10:51:54.922Z,41.50
2023-02-26T10:54:28.854Z,41.30
2023-02-26T10:56:57.090Z,41.20
2023-02-26T10:59:25.283Z,41.00
2023-02-26T11:01:54.182Z,41.70
2023-02-26T11:04:25.206Z,40.80
2023-02-26T11:06:56.717Z,40.70
2023-02-26T11:09:27.486Z,40.90
2023-02-26T11:12:02.591Z,40.50
2023-02-26T11:14:32.743Z,42.40
2023-02-26T11:17:03.532Z,40.90
2023-02-26T11:19:37.403Z,40.70
2023-02-26T11:22:09.755Z,41.10
2023-02-26T11:24:41.462Z,41.40
2023-02-26T11:27:14.129Z,41.20
2023-02-26T11:29:43.838Z,41.20
2023-02-26T11:32:19.002Z,41.20
2023-02-26T11:34:50.789Z,41.10
2023-02-26T11:37:21.978Z,41.00
2023-02-26T11:39:55.488Z,41.20
2023-02-26T11:42:23.510Z,41.60
2023-02-26T11:44:53.002Z,41.20
2023-02-26T11:47:27.591Z,41.30
2023-02-26T11:50:01.638Z,42.00
2023-02-26T11:52:34.204Z,41.90
2023-02-26T11:55:03.833Z,42.20
2023-02-26T11:57:33.927Z,41.40
2023-02-26T12:00:17.112Z,41.80
2023-02-26T12:02:45.122Z,41.90
2023-02-26T12:05:17.608Z,41.90
2023-02-26T12:07:46.940Z,41.70
2023-02-26T12:10:18.846Z,42.10
2023-02-26T12:13:05.119Z,42.50
2023-02-26T12:15:40.808Z,41.80
2023-02-26T12:18:37.647Z,41.70
2023-02-26T12:21:25.323Z,41.80
2023-02-26T12:24:13.621Z,42.10
2023-02-26T12:26:48.317Z,41.90
2023-02-26T12:29:48.657Z,41.90
2023-02-26T12:32:29.248Z,42.20
2023-02-26T12:35:18.623Z,42.00
2023-02-26T12:37:58.885Z,42.40
2023-02-26T12:40:58.690Z,41.90
2023-02-26T12:43:35.608Z,42.10
2023-02-26T12:46:13.688Z,41.90
2023-02-26T12:49:17.433Z,41.50
2023-02-26T12:51:58.865Z,41.90
2023-02-26T12:54:52.473Z,41.90
2023-02-26T12:57:49.260Z,42.10
2023-02-26T13:00:27.485Z,42.00
2023-02-26T13:03:25.065Z,42.70
2023-02-26T13:06:22.854Z,43.00
2023-02-26T13:08:58.012Z,42.40
2023-02-26T13:11:42.507Z,42.60
2023-02-26T13:14:27.644Z,41.90
2023-02-26T13:17:01.472Z,41.70
2023-02-26T13:19:43.238Z,42.10
2023-02-26T13:22:19.752Z,42.20
2023-02-26T13:24:53.636Z,42.10
2023-02-26T13:27:28.996Z,42.50
2023-02-26T13:30:11.345Z,42.00
2023-02-26T13:32:40.532Z,42.10
2023-02-26T13:35:20.855Z,41.80
2023-02-26T13:37:52.443Z,42.50
2023-02-26T13:40:55.920Z,42.50
2023-02-26T13:43:39.306Z,42.60
2023-02-26T13:46:22.136Z,42.10
2023-02-26T13:49:00.601Z,42.30
2023-02-26T13:51:36.152Z,42.10
2023-02-26T13:54:08.968Z,41.80
2023-02-26T13:56:55.182Z,42.30
2023-02-26T13:59:36.680Z,42.80
2023-02-26T14:02:43.590Z,42.60
2023-02-26T14:05:34.757Z,42.50
2023-02-26T14:08:27.408Z,42.50
2023-02-26T14:10:58.975Z,42.80
2023-02-26T14:13:36.559Z,42.40
2023-02-26T14:16:12.793Z,42.70
2023-02-26T14:18:51.291Z,42.20
2023-02-26T14:21:47.795Z,42.20
2023-02-26T14:24:18.593Z,42.30
2023-02-26T14:26:50.633Z,42.20
2023-02-26T14:29:23.336Z,43.10
2023-02-26T14:32:13.200Z,43.00
2023-02-26T14:34:51.380Z,43.10
2023-02-26T14:37:24.220Z,43.10
2023-02-26T14:39:58.154Z,42.40
2023-02-26T14:42:34.506Z,42.90
2023-02-26T14:45:11.633Z,43.20
2023-02-26T14:47:39.766Z,43.40
2023-02-26T14:50:08.884Z,44.00
2023-02-26T14:53:12.192Z,44.30
2023-02-26T14:56:04.291Z,44.50
2023-02-26T14:58:54.439Z,44.40
2023-02-26T15:01:41.245Z,44.40
2023-02-26T15:04:21.423Z,45.00
2023-02-26T15:07:14.617Z,44.20
2023-02-26T15:09:58.221Z,45.00
2023-02-26T15:12:40.522Z,45.10
2023-02-26T15:15:20.175Z,45.00
2023-02-26T15:18:03.030Z,45.00
2023-02-26T15:20:41.619Z,45.40
2023-02-26T15:23:31.931Z,45.30
2023-02-26T15:26:01.762Z,45.50
2023-02-26T15:28:32.596Z,45.40
2023-02-26T15:31:02.243Z,45.60
2023-02-26T15:33:30.800Z,45.40
2023-02-26T15:35:59.847Z,45.30
2023-02-26T15:38:28.495Z,45.40
2023-02-26T15:41:05.002Z,45.90
2023-02-26T15:43:33.106Z,45.50
2023-02-26T15:46:03.372Z,45.60
2023-02-26T15:48:33.649Z,46.00
2023-02-26T15:51:04.050Z,46.40
2023-02-26T15:53:35.102Z,47.10
2023-02-26T15:56:09.184Z,47.10
2023-02-26T15:58:43.143Z,47.20
2023-02-26T16:01:17.143Z,47.30
2023-02-26T16:03:46.847Z,47.30
2023-02-26T16:06:18.008Z,47.70
2023-02-26T16:08:46.043Z,47.30
2023-02-26T16:11:16.870Z,47.70
2023-02-26T16:13:46.809Z,48.00
2023-02-26T16:16:21.928Z,48.50
2023-02-26T16:18:50.026Z,48.70
2023-02-26T16:21:24.769Z,49.50
2023-02-26T16:23:55.694Z,49.80
2023-02-26T16:26:29.147Z,50.20
2023-02-26T16:29:01.484Z,50.10
2023-02-26T16:31:33.534Z,50.30
2023-02-26T16:34:04.030Z,50.50
2023-02-26T16:36:34.256Z,50.50
2023-02-26T16:39:14.667Z,50.40
2023-02-26T16:41:44.022Z,50.40
2023-02-26T16:44:39.165Z,50.60
2023-02-26T16:47:08.814Z,50.60
2023-02-26T16:49:39.120Z,50.70
2023-02-26T16:52:07.394Z,51.00
2023-02-26T16:54:39.163Z,51.10
2023-02-26T16:57:18.009Z,51.70
2023-02-26T16:59:53.627Z,51.50
2023-02-26T17:02:24.541Z,52.10
2023-02-26T17:04:55.594Z,52.20
2023-02-26T17:07:28.749Z,52.60
2023-02-26T17:09:59.327Z,53.10
2023-02-26T17:12:44.806Z,53.30
2023-02-26T17:15:20.741Z,53.30
2023-02-26T17:17:50.357Z,54.00
2023-02-26T17:20:18.833Z,54.20
2023-02-26T17:22:46.878Z,54.30
2023-02-26T17:25:17.580Z,54.40
2023-02-26T17:27:48.105Z,54.40
2023-02-26T17:30:20.186Z,55.20
2023-02-26T17:32:48.532Z,54.60
2023-02-26T17:35:18.778Z,54.90
2023-02-26T17:37:47.541Z,55.20
2023-02-26T17:40:23.050Z,55.10
2023-02-26T17:42:53.107Z,55.30
2023-02-26T17:45:22.032Z,55.20
2023-02-26T17:47:50.382Z,55.50
2023-02-26T17:50:29.350Z,55.60
2023-02-26T17:52:57.800Z,55.50
2023-02-26T17:55:25.800Z,55.50
2023-02-26T17:57:56.397Z,55.70
2023-02-26T18:00:24.779Z,55.80
2023-02-26T18:02:52.791Z,55.60
2023-02-26T18:05:21.392Z,55.70
2023-02-26T18:07:49.994Z,56.10
2023-02-26T18:10:20.848Z,56.10
2023-02-26T18:12:49.619Z,56.60
2023-02-26T18:15:19.054Z,56.90
2023-02-26T18:17:47.102Z,56.70
2023-02-26T18:20:19.331Z,56.60
2023-02-26T18:22:48.150Z,56.80
2023-02-26T18:25:16.425Z,56.50
2023-02-26T18:27:45.005Z,56.80
2023-02-26T18:30:22.344Z,56.60
2023-02-26T18:32:50.542Z,57.50
2023-02-26T18:35:18.964Z,57.50
2023-02-26T18:37:47.587Z,57.20
2023-02-26T18:40:17.612Z,57.20
2023-02-26T18:42:45.694Z,57.10
2023-02-26T18:45:13.659Z,58.10
2023-02-26T18:47:44.839Z,58.60
2023-02-26T18:50:15.153Z,58.50
2023-02-26T18:52:43.437Z,58.60
2023-02-26T18:55:12.366Z,58.80
2023-02-26T18:57:42.451Z,58.80
2023-02-26T19:00:14.020Z,59.50
2023-02-26T19:02:44.433Z,59.80
2023-02-26T19:05:13.242Z,60.20
2023-02-26T19:07:42.632Z,60.40
2023-02-26T19:10:14.666Z,60.90
2023-02-26T19:12:42.833Z,61.50
2023-02-26T19:15:13.299Z,61.90
2023-02-26T19:17:41.406Z,62.00
2023-02-26T19:20:12.493Z,61.90
2023-02-26T19:22:42.024Z,61.80
2023-02-26T19:25:10.723Z,62.20
2023-02-26T19:27:39.639Z,62.80
2023-02-26T19:30:09.033Z,63.20
2023-02-26T19:32:37.218Z,63.60
2023-02-26T19:35:07.135Z,63.70
2023-02-26T19:37:36.583Z,63.60
2023-02-26T19:40:09.769Z,63.50
2023-02-26T19:42:38.077Z,63.60
2023-02-26T19:45:06.925Z,63.80
2023-02-26T19:47:35.309Z,64.60
2023-02-26T19:50:03.987Z,64.90
2023-02-26T19:52:34.104Z,65.20
2023-02-26T19:55:03.656Z,65.20
2023-02-26T19:57:32.420Z,64.80
2023-02-26T20:00:01.105Z,64.60
2023-02-26T20:02:29.957Z,64.80
2023-02-26T20:04:58.803Z,64.90
2023-02-26T20:07:27.664Z,64.80
2023-02-26T20:09:56.372Z,64.60
2023-02-26T20:12:28.915Z,64.70
2023-02-26T20:14:58.090Z,64.90
2023-02-26T20:17:26.820Z,64.90
2023-02-26T20:19:55.562Z,64.50
2023-02-26T20:22:24.838Z,64.50
2023-02-26T20:24:53.672Z,64.60
2023-02-26T20:27:22.396Z,64.70
2023-02-26T20:29:52.640Z,65.20
2023-02-26T20:32:21.483Z,65.10
2023-02-26T20:34:51.768Z,65.10
2023-02-26T20:37:20.368Z,65.30
2023-02-26T20:39:49.347Z,65.20
2023-02-26T20:42:18.221Z,64.90
2023-02-26T20:44:46.840Z,64.60
2023-02-26T20:47:19.463Z,64.40
2023-02-26T20:49:48.227Z,64.60
2023-02-26T20:52:16.846Z,64.60
2023-02-26T20:54:46.882Z,64.40
2023-02-26T20:57:16.052Z,64.30
2023-02-26T20:59:44.806Z,64.30
2023-02-26T21:02:15.737Z,64.60
2023-02-26T21:04:46.046Z,64.30
2023-02-26T21:07:17.825Z,64.40
2023-02-26T21:09:48.192Z,64.20
2023-02-26T21:12:17.247Z,64.10
2023-02-26T21:14:46.564Z,64.30
2023-02-26T21:17:14.931Z,64.20
2023-02-26T21:19:44.486Z,64.10
2023-02-26T21:22:13.162Z,63.90
2023-02-26T21:24:41.608Z,64.00
2023-02-26T21:27:09.780Z,64.40
2023-02-26T21:29:37.908Z,64.60
2023-02-26T21:32:07.099Z,64.60
2023-02-26T21:34:36.147Z,64.70
2023-02-26T21:37:08.254Z,64.70
2023-02-26T21:39:38.040Z,64.80
2023-02-26T21:42:07.379Z,64.30
2023-02-26T21:44:36.661Z,64.40
2023-02-26T21:47:05.140Z,64.50
2023-02-26T21:49:33.191Z,64.50
2023-02-26T21:52:02.721Z,64.20
2023-02-26T21:54:32.336Z,64.40
2023-02-26T21:57:00.425Z,64.40
2023-02-26T21:59:28.405Z,64.10
2023-02-26T22:01:56.582Z,63.70
2023-02-26T22:04:24.710Z,63.60
2023-02-26T22:06:52.873Z,63.60
2023-02-26T22:09:21.910Z,63.60
2023-02-26T22:11:51.357Z,64.20
2023-02-26T22:14:19.529Z,64.40
2023-02-26T22:16:47.630Z,64.20
2023-02-26T22:19:15.624Z,64.40
2023-02-26T22:21:43.647Z,64.30
2023-02-26T22:24:11.820Z,64.20
2023-02-26T22:26:39.820Z,64.20
2023-02-26T22:29:09.131Z,64.20
2023-02-26T22:31:37.091Z,63.90
2023-02-26T22:34:05.078Z,64.40
2023-02-26T22:36:34.869Z,65.00
2023-02-26T22:39:02.832Z,65.40
2023-02-26T22:41:31.075Z,65.70
2023-02-26T22:43:59.164Z,65.40
2023-02-26T22:46:29.256Z,65.90
2023-02-26T22:48:57.449Z,66.20
2023-02-26T22:51:25.785Z,66.20
2023-02-26T22:53:54.027Z,66.40
2023-02-26T22:56:21.963Z,66.50
2023-02-26T22:58:49.925Z,66.50
2023-02-26T23:01:18.513Z,66.70
2023-02-26T23:03:48.089Z,66.90
2023-02-26T23:06:16.304Z,67.10
2023-02-26T23:08:44.374Z,67.10
2023-02-26T23:11:12.356Z,66.90
2023-02-26T23:13:40.340Z,66.90
2023-02-26T23:16:10.668Z,66.70
2023-02-26T23:18:39.725Z,67.20
2023-02-26T23:21:09.121Z,66.40
2023-02-26T23:23:37.211Z,66.40
2023-02-26T23:26:05.478Z,66.60
2023-02-26T23:28:33.635Z,66.60
2023-02-26T23:31:01.728Z,65.70
2023-02-26T23:33:29.786Z,65.50
2023-02-26T23:35:58.032Z,65.80
2023-02-26T23:38:27.426Z,66.60
2023-02-26T23:40:56.787Z,66.80
2023-02-26T23:43:25.321Z,67.60
2023-02-26T23:45:53.306Z,67.50
2023-02-26T23:48:21.404Z,67.60
2023-02-26T23:50:49.754Z,67.70
2023-02-26T23:53:17.765Z,67.70
2023-02-26T23:55:47.969Z,67.80
2023-02-26T23:58:15.939Z,67.40
